Flight Track Log - Related Links

Times and Time Zones

All times are in EDT time to prevent confusion due to time zone crossing. See the EJA951 flight status page for this flight to view local times or setup timezone preferences in your user account.


Time Position Orientation Groundspeed Altitude Reporting Facility
EDT Latitude Longitude Course Direction KTS MPH feet Rate Location/Type
Fri 12:05:39 PM 26.0728 -80.1411 76° East 174 200 900  Level Miami Center
Fri 12:06:47 PM 26.0889 -80.0678 76° East 240 276 4,800 2,954 Climbing Miami Center
Fri 12:07:49 PM 26.1472 -80.0808 349° North 260 299 7,300 3,227 Climbing Miami Center
Fri 12:08:46 PM 26.2108 -80.1267 327° Northwest 277 319 11,200 3,026 Climbing Miami Center
Fri 12:09:46 PM 26.2808 -80.1817 325° Northwest 294 338 13,200 1,650 Climbing Miami Center
Fri 12:10:46 PM 26.3606 -80.2467 324° Northwest 343 395 14,500 1,500 Climbing Miami Center
Fri 12:11:46 PM 26.4428 -80.3139 324° Northwest 359 413 16,200 1,750 Climbing Miami Center
Fri 12:12:46 PM 26.5331 -80.3744 329° Northwest 378 435 18,000 1,500 Climbing Miami Center
Fri 12:13:46 PM 26.6389 -80.4056 345° North 378 435 19,200 1,300 Climbing Miami Center
Fri 12:14:46 PM 26.7489 -80.4344 347° North 389 448 20,600 1,400 Climbing Miami Center
Fri 12:15:46 PM 26.8486 -80.4539 350° North 395 455 22,000 1,550 Climbing Miami Center
Fri 12:16:46 PM 26.9653 -80.4597 357° North 410 472 23,700 1,400 Climbing Miami Center
Fri 12:17:46 PM 27.1031 -80.4642 358° North 429 494 24,800 1,350 Climbing Miami Center
Fri 12:18:46 PM 27.1967 -80.4764 353° North 436 502 26,400 1,450 Climbing Miami Center
Fri 12:19:46 PM 27.3186 -80.5292 339° North 421 484 27,700 1,450 Climbing Miami Center
Fri 12:20:46 PM 27.4319 -80.5819 338° Northwest 427 491 29,300 1,750 Climbing Miami Center
Fri 12:21:46 PM 27.5600 -80.6400 338° Northwest 439 505 31,200 1,750 Climbing Miami Center
Fri 12:22:46 PM 27.6611 -80.6878 337° Northwest 439 505 32,800 2,550 Climbing Miami Center
Fri 12:23:46 PM 27.7642 -80.7358 338° Northwest 425 489 36,300 2,950 Climbing Miami Center
Fri 12:24:46 PM 27.8797 -80.7844 340° North 405 466 38,700 1,900 Climbing Miami Center
Fri 12:25:46 PM 27.9806 -80.8303 338° Northwest 398 458 40,100 1,150 Climbing Miami Center
Fri 12:26:46 PM 28.0878 -80.8811 337° Northwest 398 458 41,000 450 Climbing Miami Center
Fri 12:27:46 PM 28.1989 -80.9344 337° Northwest 409 471 41,000  Level Miami Center
Fri 12:28:46 PM 28.3164 -80.9883 338° Northwest 434 499 41,000  Level Miami Center
Fri 12:30:45 PM 28.5486 -81.0989 337° Northwest 468 539 41,000  Level Jacksonville Center
Fri 12:31:45 PM 28.6703 -81.1581 337° Northwest 468 539 41,000  Level Jacksonville Center
Fri 12:32:45 PM 28.7922 -81.2153 338° Northwest 468 539 41,000  Level Jacksonville Center
Fri 12:33:45 PM 28.9264 -81.2700 340° North 462 532 41,000  Level Jacksonville Center
Fri 12:34:45 PM 29.0417 -81.3156 341° North 471 542 41,000  Level Jacksonville Center
Fri 12:35:45 PM 29.1761 -81.3728 340° North 481 554 41,000  Level Jacksonville Center
Fri 12:36:46 PM 29.2997 -81.4258 339° North 481 554 41,000  Level Jacksonville Center
Fri 12:37:45 PM 29.4214 -81.4764 340° North 474 545 41,000  Level Jacksonville Center
Fri 12:38:45 PM 29.5494 -81.5294 340° North 474 545 41,000  Level Jacksonville Center
Fri 12:39:45 PM 29.6753 -81.5825 340° North 474 545 41,000  Level Jacksonville Center
Fri 12:40:45 PM 29.8011 -81.6336 341° North 474 545 41,000  Level Jacksonville Center
Fri 12:41:45 PM 29.9247 -81.6872 339° North 474 545 41,000  Level Jacksonville Center
Fri 12:42:45 PM 30.0483 -81.7336 342° North 474 545 41,000  Level Jacksonville Center
Fri 12:43:45 PM 30.1742 -81.7872 340° North 474 545 41,000  Level Jacksonville Center
Fri 12:44:45 PM 30.3019 -81.8411 340° North 474 545 41,000  Level Jacksonville Center
Fri 12:45:45 PM 30.4275 -81.8953 340° North 474 545 41,000  Level Jacksonville Center
Fri 12:46:45 PM 30.5533 -81.9494 340° North 477 549 41,000 -50 Level Jacksonville Center
Fri 12:47:45 PM 30.6686 -82.0039 338° Northwest 477 549 40,900 -850 Descending Jacksonville Center
Fri 12:48:45 PM 30.7900 -82.0558 340° North 472 543 39,300 -1,450 Descending Jacksonville Center
Fri 12:49:45 PM 30.9031 -82.1058 339° North 453 521 38,000 -650 Descending Jacksonville Center
Fri 12:50:45 PM 31.0181 -82.1556 340° North 439 505 38,000 -500 Level Jacksonville Center
Fri 12:51:45 PM 31.1353 -82.2058 340° North 439 505 37,000 -500 Descending Jacksonville Center
Fri 12:52:45 PM 31.2547 -82.2583 339° North 444 511 37,000  Level Jacksonville Center
Fri 12:53:45 PM 31.3758 -82.3111 340° North 454 522 37,000  Level Jacksonville Center
Fri 12:54:45 PM 31.4953 -82.3567 342° North 454 522 37,000 -600 Level Jacksonville Center
Fri 12:55:45 PM 31.6186 -82.4119 339° North 454 522 35,800 -1,600 Descending Jacksonville Center
Fri 12:56:45 PM 31.7378 -82.4650 339° North 454 522 33,800 -2,050 Descending Jacksonville Center
Fri 12:57:45 PM 31.8653 -82.5208 340° North 464 534 31,700 -2,084 Descending Jacksonville Center
Fri 12:58:20 PM 31.9400 -82.5558 338° Northwest 478 550 30,500 -1,705 Descending Atlanta Center
Fri 12:59:20 PM 32.0661 -82.6100 340° North 478 550 29,000 -1,350 Descending Atlanta Center
Fri 01:00:20 PM 32.1897 -82.6644 340° North 478 550 27,800 -1,600 Descending Atlanta Center
Fri 01:01:20 PM 32.3114 -82.7217 338° Northwest 473 544 25,800 -1,900 Descending Atlanta Center
Fri 01:02:20 PM 32.4331 -82.7764 339° North 473 544 24,000 -1,400 Descending Atlanta Center
Fri 01:03:20 PM 32.5589 -82.8336 339° North 462 532 23,000 -1,150 Descending Atlanta Center
Fri 01:04:20 PM 32.6558 -82.9211 323° Northwest 439 505 21,700 -1,300 Descending Atlanta Center
Fri 01:05:20 PM 32.7400 -83.0092 319° Northwest 449 517 20,400 -1,300 Descending Atlanta Center
Fri 01:06:20 PM 32.8347 -83.1019 321° Northwest 433 498 19,100 -1,300 Descending Atlanta Center
Fri 01:07:20 PM 32.9208 -83.1950 318° Northwest 411 473 17,800 -1,250 Descending Atlanta Center
Fri 01:08:20 PM 33.0008 -83.2733 321° Northwest 411 473 16,600 -1,250 Descending Atlanta Center
Fri 01:09:20 PM 33.0911 -83.3644 320° Northwest 404 465 15,300 -1,250 Descending Atlanta Center
Fri 01:10:20 PM 33.1728 -83.4431 321° Northwest 390 449 14,100 -1,150 Descending Atlanta Center
Fri 01:11:20 PM 33.2506 -83.5272 318° Northwest 379 436 13,000 -1,100 Descending Atlanta Center
Fri 01:12:20 PM 33.3239 -83.6011 320° Northwest 365 420 11,900 -1,023 Descending Atlanta Center
Fri 01:12:48 PM 33.3500 -83.6333 314° West 293 337 11,500 -900 Descending Atlanta TRACON
Fri 01:13:20 PM 33.3844 -83.6606 327° Northwest 306 352 11,000 -326 Descending Atlanta Center
Fri 01:14:20 PM 33.4453 -83.7128 324° Northwest 272 313 11,000 -300 Level Atlanta Center
Fri 01:15:20 PM 33.5039 -83.7597 326° Northwest 266 306 10,400 -1,200 Descending Atlanta Center
Fri 01:16:20 PM 33.5622 -83.7944 334° Northwest 248 285 8,600 -1,800 Descending Atlanta Center
Fri 01:17:20 PM 33.6269 -83.8192 342° North 243 280 6,800 -1,650 Descending Atlanta Center
Fri 01:18:20 PM 33.6875 -83.8317 350° North 238 274 5,300 -1,650 Descending Atlanta Center
Fri 01:19:20 PM 33.7253 -83.8939 306° West 221 254 3,500 -1,150 Descending Atlanta Center
Fri 01:20:20 PM 33.7503 -83.9589 295° West 221 254 3,000 -195 Descending Atlanta Center
Fri 01:21:54 PM 33.7833 -84.0667 290° West 219 252 3,000  Level Atlanta TRACON
Fri 01:22:54 PM 33.8000 -84.1500 284° West 256 295 3,000 -250 Level Atlanta TRACON
Fri 01:23:54 PM 33.8167 -84.2167 287° West 193 222 2,500 -400 Descending Atlanta TRACON
Fri 01:24:54 PM 33.8167 -84.2667 270° West 166 191 2,200 -300 Descending Atlanta TRACON
Fri 01:25:54 PM 33.8167 -84.3167 270° West 130 150 1,900 -300 Descending Atlanta TRACON
Fri 01:27:00 PM 33.8667 -84.3000 304° West  Level FlightAware Approximate

Login

Don't have an account? Register now (free) for customized features, flight alerts, and more!